Time;durP1;ratioP1;P1;durP2;ratioP2;P2;SDS_P1;SDS_P2;PMS_P1;PMS_P2;Temp;Humidity;BMP_temperature;BMP_pressure;BME280_temperature;BME280_humidity;BME280_pressure;Samples;Min_cycle;Max_cycle;Signal;HPM_P1;HPM_P2
2023/05/07 00:00:48;;;;;;;10.32;4.85;;;17.10;63.50;;;;;;4935621;28;20035;-83
2023/05/07 00:03:13;;;;;;;8.63;4.35;;;17.00;63.40;;;;;;4944683;28;20146;-82
2023/05/07 00:05:39;;;;;;;8.70;4.80;;;17.10;63.70;;;;;;4941912;28;20166;-82
2023/05/07 00:08:05;;;;;;;8.52;5.40;;;17.10;63.70;;;;;;4941960;28;20058;-81
2023/05/07 00:10:31;;;;;;;8.82;5.13;;;17.00;63.60;;;;;;4942690;28;20534;-83
2023/05/07 00:12:57;;;;;;;11.68;5.13;;;17.00;63.60;;;;;;4937868;28;20139;-82
2023/05/07 00:15:23;;;;;;;8.60;5.10;;;17.00;63.60;;;;;;4943073;28;20034;-83
2023/05/07 00:17:49;;;;;;;10.30;5.93;;;17.00;63.70;;;;;;4944000;28;20039;-81
2023/05/07 00:20:15;;;;;;;8.85;4.90;;;17.00;63.70;;;;;;4944402;28;20024;-81
2023/05/07 00:22:41;;;;;;;11.45;5.78;;;17.00;63.80;;;;;;4945553;28;20361;-82
2023/05/07 00:25:07;;;;;;;9.48;5.90;;;17.00;63.80;;;;;;4946071;28;20843;-82
2023/05/07 00:27:33;;;;;;;8.55;5.15;;;17.00;63.90;;;;;;4940037;29;20194;-81
2023/05/07 00:29:59;;;;;;;9.45;5.60;;;16.90;63.80;;;;;;4938516;28;20114;-81
2023/05/07 00:32:25;;;;;;;6.95;4.50;;;16.90;64.30;;;;;;4934523;28;20472;-82
2023/05/07 00:34:51;;;;;;;11.75;5.80;;;16.90;63.80;;;;;;4943713;28;20134;-82
2023/05/07 00:37:17;;;;;;;11.10;5.80;;;16.80;63.80;;;;;;4944827;28;20078;-82
2023/05/07 00:39:42;;;;;;;6.00;4.88;;;16.80;63.80;;;;;;4941936;28;20122;-82
2023/05/07 00:42:08;;;;;;;10.25;6.18;;;16.80;63.80;;;;;;4932037;28;20123;-82
2023/05/07 00:44:34;;;;;;;9.98;5.80;;;16.80;63.80;;;;;;4939559;28;20408;-82
2023/05/07 00:47:03;;;;;;;7.53;5.63;;;16.80;63.90;;;;;;4948104;28;20087;-82
2023/05/07 00:49:44;;;;;;;10.98;5.82;;;16.80;63.90;;;;;;4932191;28;20034;-81
2023/05/07 00:52:13;;;;;;;8.75;6.15;;;16.70;64.40;;;;;;4945539;28;20479;-81
2023/05/07 00:54:41;;;;;;;9.65;6.10;;;16.70;63.90;;;;;;4943064;28;20051;-82
2023/05/07 00:57:08;;;;;;;9.80;6.47;;;16.70;63.90;;;;;;4941566;28;20034;-82
2023/05/07 00:59:35;;;;;;;14.13;6.25;;;16.70;64.00;;;;;;4932138;28;20043;-82
2023/05/07 01:02:01;;;;;;;10.32;6.70;;;16.70;64.00;;;;;;4934671;28;20072;-82
2023/05/07 01:04:27;;;;;;;12.85;7.18;;;16.60;63.90;;;;;;4934083;28;20488;-80
2023/05/07 01:06:56;;;;;;;13.20;7.75;;;16.60;64.00;;;;;;4941153;28;20069;-82
2023/05/07 01:09:23;;;;;;;13.35;7.93;;;16.60;64.10;;;;;;4935448;28;20098;-81
2023/05/07 01:11:51;;;;;;;8.90;6.65;;;16.60;64.10;;;;;;4940497;28;20488;-82
2023/05/07 01:14:18;;;;;;;12.18;6.80;;;16.50;64.00;;;;;;4944725;28;20158;-82
2023/05/07 01:16:44;;;;;;;11.68;7.88;;;16.50;64.00;;;;;;4951354;28;20114;-82
2023/05/07 01:19:14;;;;;;;9.90;7.85;;;16.60;64.20;;;;;;4937984;28;20510;-83
2023/05/07 01:21:46;;;;;;;11.23;7.70;;;16.50;64.10;;;;;;4937916;28;20082;-83
2023/05/07 01:24:12;;;;;;;11.35;8.13;;;16.50;64.20;;;;;;4934413;28;20040;-83
2023/05/07 01:26:39;;;;;;;12.60;7.40;;;16.50;64.20;;;;;;4937399;28;20043;-82
2023/05/07 01:29:06;;;;;;;12.30;6.32;;;16.50;64.20;;;;;;4932431;28;20235;-83
2023/05/07 01:31:34;;;;;;;10.75;7.93;;;16.50;64.20;;;;;;4938186;28;20039;-82
2023/05/07 01:34:01;;;;;;;9.00;7.30;;;16.50;64.30;;;;;;4940888;28;20047;-81
2023/05/07 01:36:30;;;;;;;14.15;7.60;;;16.50;64.30;;;;;;4946334;29;20031;-81
2023/05/07 01:38:57;;;;;;;10.70;6.90;;;16.50;64.40;;;;;;4943377;28;20077;-81
2023/05/07 01:41:24;;;;;;;12.82;7.72;;;16.40;64.20;;;;;;4944291;28;20027;-80
2023/05/07 01:43:51;;;;;;;10.52;7.13;;;16.40;64.30;;;;;;4944343;28;20054;-81
2023/05/07 01:46:18;;;;;;;10.75;6.72;;;16.40;64.30;;;;;;4946547;28;20034;-82
2023/05/07 01:48:45;;;;;;;9.05;6.57;;;16.40;64.30;;;;;;4950269;28;20047;-83
2023/05/07 01:51:12;;;;;;;11.25;8.05;;;16.40;64.40;;;;;;4948233;28;20093;-83
2023/05/07 01:53:40;;;;;;;10.88;7.15;;;16.40;64.40;;;;;;4946938;29;20052;-82
2023/05/07 01:56:06;;;;;;;10.02;6.93;;;16.30;64.30;;;;;;4948236;28;20399;-82
2023/05/07 01:58:33;;;;;;;12.32;7.80;;;16.30;64.30;;;;;;4946166;28;20026;-83
2023/05/07 02:01:00;;;;;;;10.90;6.45;;;16.30;64.30;;;;;;4972823;28;20015;-81
2023/05/07 02:03:25;;;;;;;9.65;7.03;;;16.30;64.40;;;;;;4973861;28;20070;-83
2023/05/07 02:06:00;;;;;;;12.05;7.20;;;16.20;64.20;;;;;;4972053;28;20050;-82
2023/05/07 02:08:31;;;;;;;11.70;6.60;;;16.30;64.50;;;;;;4978129;28;20027;-83
2023/05/07 02:10:57;;;;;;;11.93;7.07;;;16.20;64.40;;;;;;4984347;28;20022;-82
2023/05/07 02:13:26;;;;;;;8.65;6.45;;;16.20;64.40;;;;;;4962744;28;20048;-82
2023/05/07 02:15:53;;;;;;;11.15;6.82;;;16.20;64.50;;;;;;4932871;29;20043;-81
2023/05/07 02:18:20;;;;;;;9.20;6.40;;;16.20;64.60;;;;;;4930513;28;20122;-83
2023/05/07 02:20:46;;;;;;;9.90;6.75;;;16.20;64.60;;;;;;4949163;28;20135;-82
2023/05/07 02:23:11;;;;;;;9.10;6.68;;;16.10;64.40;;;;;;4959150;28;20039;-79
2023/05/07 02:25:38;;;;;;;9.57;6.32;;;16.10;64.50;;;;;;4947595;28;20031;-81
2023/05/07 02:28:04;;;;;;;9.20;6.22;;;16.10;64.50;;;;;;4953023;28;20035;-82
2023/05/07 02:30:52;;;;;;;10.40;7.10;;;16.20;64.70;;;;;;4945110;28;20031;-83
2023/05/07 02:33:19;;;;;;;11.50;7.32;;;16.10;64.60;;;;;;4948746;28;20050;-81
2023/05/07 02:35:46;;;;;;;11.85;7.45;;;16.10;64.60;;;;;;4946929;28;20041;-81
2023/05/07 02:38:14;;;;;;;11.73;7.75;;;16.10;64.60;;;;;;4943353;28;20031;-79
2023/05/07 02:40:41;;;;;;;9.82;7.53;;;16.10;64.60;;;;;;4947079;28;20039;-80
2023/05/07 02:43:08;;;;;;;12.48;8.15;;;16.00;64.50;;;;;;4951044;28;20269;-80
2023/05/07 02:45:36;;;;;;;12.93;8.95;;;16.00;64.50;;;;;;4955178;28;20039;-82
2023/05/07 02:48:05;;;;;;;16.50;9.90;;;16.10;64.70;;;;;;4950257;28;20047;-82
2023/05/07 02:50:32;;;;;;;11.55;8.95;;;16.00;64.60;;;;;;4950537;28;20039;-81
2023/05/07 02:52:58;;;;;;;15.25;11.18;;;16.00;64.60;;;;;;4953700;28;20050;-81
2023/05/07 02:55:24;;;;;;;14.77;11.27;;;16.00;64.70;;;;;;4953027;28;20456;-84
2023/05/07 02:57:50;;;;;;;14.05;12.52;;;16.00;64.70;;;;;;4953309;28;20030;-83
2023/05/07 03:00:18;;;;;;;17.65;12.50;;;16.00;64.80;;;;;;4954608;28;20057;-82
2023/05/07 03:02:55;;;;;;;16.52;13.77;;;16.00;64.80;;;;;;4943417;28;20118;-82
2023/05/07 03:05:22;;;;;;;18.83;13.68;;;15.90;64.60;;;;;;4955182;28;20039;-82
2023/05/07 03:07:47;;;;;;;19.00;14.77;;;15.90;64.70;;;;;;4955669;28;20053;-81
2023/05/07 03:10:14;;;;;;;20.90;15.43;;;15.90;64.70;;;;;;4952795;28;20483;-81
2023/05/07 03:12:40;;;;;;;26.27;18.92;;;15.90;64.80;;;;;;4944798;28;20094;-81
2023/05/07 03:15:08;;;;;;;25.67;17.15;;;15.80;64.60;;;;;;4955828;28;20043;-81
2023/05/07 03:17:34;;;;;;;24.17;17.63;;;15.90;64.80;;;;;;4958401;28;20522;-81
2023/05/07 03:20:00;;;;;;;21.77;17.25;;;15.80;64.70;;;;;;4953301;28;20036;-81
2023/05/07 03:22:26;;;;;;;25.02;19.88;;;15.80;64.80;;;;;;4945852;28;20035;-81
2023/05/07 03:24:52;;;;;;;24.83;19.67;;;15.80;64.80;;;;;;4947735;28;20031;-81
2023/05/07 03:27:18;;;;;;;24.25;19.38;;;15.80;64.80;;;;;;4946259;28;20023;-82
2023/05/07 03:29:44;;;;;;;26.40;19.75;;;15.70;64.70;;;;;;4946428;29;20442;-81
2023/05/07 03:32:10;;;;;;;26.83;20.58;;;15.80;65.00;;;;;;4936352;28;20032;-81
2023/05/07 03:34:37;;;;;;;25.88;18.92;;;15.70;64.80;;;;;;4941164;28;20044;-81
2023/05/07 03:37:03;;;;;;;24.33;19.90;;;15.70;64.90;;;;;;4948159;28;20658;-81
2023/05/07 03:39:28;;;;;;;24.27;20.05;;;15.70;64.90;;;;;;4946624;28;20062;-81
2023/05/07 03:41:54;;;;;;;27.23;20.20;;;15.70;64.90;;;;;;4941149;28;20032;-80
2023/05/07 03:44:20;;;;;;;25.52;18.80;;;15.70;65.00;;;;;;4956361;28;20102;-80
2023/05/07 03:46:47;;;;;;;20.88;17.63;;;15.70;65.00;;;;;;4959230;28;20055;-81
2023/05/07 03:49:13;;;;;;;22.50;17.80;;;15.60;64.80;;;;;;4949299;28;20215;-82
2023/05/07 03:51:39;;;;;;;20.30;15.18;;;15.60;64.80;;;;;;4958432;28;20355;-81
2023/05/07 03:54:07;;;;;;;21.13;16.65;;;15.60;64.80;;;;;;4947237;28;20043;-81
2023/05/07 03:56:33;;;;;;;19.83;15.48;;;15.60;64.90;;;;;;4950760;28;20034;-80
2023/05/07 03:59:00;;;;;;;17.15;14.80;;;15.60;65.00;;;;;;4942226;28;20110;-81
2023/05/07 04:01:26;;;;;;;18.42;13.48;;;15.60;64.90;;;;;;4950567;28;20042;-81
2023/05/07 04:03:52;;;;;;;17.95;14.00;;;15.60;65.00;;;;;;4944699;29;20419;-81
2023/05/07 04:06:18;;;;;;;20.20;14.20;;;15.50;64.80;;;;;;4945734;28;20035;-81
2023/05/07 04:08:48;;;;;;;15.23;12.52;;;15.60;65.00;;;;;;4947408;29;20035;-82
2023/05/07 04:11:14;;;;;;;16.35;11.82;;;15.50;65.40;;;;;;4944966;29;20091;-82
2023/05/07 04:13:40;;;;;;;15.60;12.77;;;15.50;64.90;;;;;;4940995;28;20043;-81
2023/05/07 04:16:08;;;;;;;13.00;11.20;;;15.50;64.90;;;;;;4945594;28;20054;-81
2023/05/07 04:18:35;;;;;;;14.60;10.60;;;15.50;64.90;;;;;;4929043;29;20074;-81
2023/05/07 04:21:01;;;;;;;14.88;11.00;;;15.50;64.90;;;;;;4945609;28;20682;-81
2023/05/07 04:23:27;;;;;;;15.05;10.93;;;15.50;64.90;;;;;;4945208;29;20035;-81
2023/05/07 04:25:55;;;;;;;12.55;10.60;;;15.50;64.90;;;;;;4946073;28;20587;-81
2023/05/07 04:28:30;;;;;;;14.95;10.77;;;15.40;64.80;;;;;;4938831;29;20035;-81
2023/05/07 04:30:56;;;;;;;12.52;10.10;;;15.40;64.80;;;;;;4942517;28;20035;-81
2023/05/07 04:33:23;;;;;;;14.93;11.07;;;15.40;65.30;;;;;;4950568;28;20051;-80
2023/05/07 04:35:50;;;;;;;12.23;9.82;;;15.40;64.80;;;;;;4949589;29;20491;-81
2023/05/07 04:38:16;;;;;;;13.88;10.23;;;15.40;64.90;;;;;;4946911;28;20027;-80
2023/05/07 04:40:42;;;;;;;13.65;9.75;;;15.40;64.90;;;;;;4938815;29;20387;-81
2023/05/07 04:43:11;;;;;;;15.30;10.18;;;15.40;64.90;;;;;;4953264;28;20577;-81
2023/05/07 04:45:43;;;;;;;13.23;11.05;;;15.40;64.90;;;;;;4952180;28;20065;-80
2023/05/07 04:48:10;;;;;;;13.40;11.88;;;15.40;64.90;;;;;;4940459;28;20770;-81
2023/05/07 04:50:38;;;;;;;18.67;12.10;;;15.40;64.90;;;;;;4938988;28;20046;-81
2023/05/07 04:53:04;;;;;;;12.35;9.60;;;15.40;64.90;;;;;;4944541;28;20107;-81
2023/05/07 04:55:30;;;;;;;14.80;12.43;;;15.30;64.80;;;;;;4930348;28;20093;-80
2023/05/07 04:57:56;;;;;;;16.75;12.20;;;15.40;64.90;;;;;;4947197;28;20046;-80
2023/05/07 05:00:23;;;;;;;15.95;12.43;;;15.30;64.70;;;;;;4950604;28;20035;-80
2023/05/07 05:02:51;;;;;;;18.17;13.00;;;15.30;64.80;;;;;;4938216;28;20039;-81
2023/05/07 05:05:19;;;;;;;15.10;12.05;;;15.40;64.90;;;;;;4915515;28;20047;-81
2023/05/07 05:07:47;;;;;;;16.00;12.25;;;15.30;64.70;;;;;;4936899;28;20127;-81
2023/05/07 05:10:13;;;;;;;15.50;12.73;;;15.30;64.80;;;;;;4940684;28;20508;-81
2023/05/07 05:12:40;;;;;;;15.60;12.00;;;15.30;64.80;;;;;;4933713;28;20087;-81
2023/05/07 05:15:07;;;;;;;19.63;13.30;;;15.30;64.80;;;;;;4919351;28;20059;-80
2023/05/07 05:17:35;;;;;;;18.90;13.88;;;15.30;64.80;;;;;;4936527;28;20077;-80
2023/05/07 05:20:04;;;;;;;20.27;13.32;;;15.30;64.80;;;;;;4935113;28;20032;-80
2023/05/07 05:22:31;;;;;;;18.55;14.13;;;15.30;64.90;;;;;;4938064;28;20028;-81
2023/05/07 05:24:58;;;;;;;17.95;13.98;;;15.30;64.90;;;;;;4935033;28;20095;-81
2023/05/07 05:27:24;;;;;;;18.70;14.10;;;15.30;64.90;;;;;;4939053;28;20073;-81
2023/05/07 05:29:50;;;;;;;17.08;13.93;;;15.30;64.90;;;;;;4946169;28;20347;-80
2023/05/07 05:32:16;;;;;;;21.35;15.13;;;15.30;64.80;;;;;;4941342;28;20457;-82
2023/05/07 05:34:43;;;;;;;19.67;16.05;;;15.30;64.80;;;;;;4936698;28;20607;-81
2023/05/07 05:37:09;;;;;;;18.80;15.05;;;15.30;64.80;;;;;;4937283;29;20146;-79
2023/05/07 05:39:35;;;;;;;20.15;15.05;;;15.30;64.70;;;;;;4936467;28;20040;-83
2023/05/07 05:42:02;;;;;;;18.10;15.48;;;15.40;64.80;;;;;;4920762;29;20086;-86
2023/05/07 05:44:28;;;;;;;23.50;17.42;;;15.40;64.80;;;;;;4935887;28;20030;-82
2023/05/07 05:46:55;;;;;;;21.35;16.77;;;15.40;64.80;;;;;;4937687;28;20047;-88
2023/05/07 05:49:22;;;;;;;23.35;17.58;;;15.40;64.70;;;;;;4938712;28;20401;-82
2023/05/07 05:51:48;;;;;;;18.23;14.57;;;15.50;64.80;;;;;;4948010;28;20031;-86
2023/05/07 05:54:15;;;;;;;15.85;12.18;;;15.50;65.40;;;;;;4942503;28;20099;-83
2023/05/07 05:56:41;;;;;;;16.27;11.63;;;15.60;65.70;;;;;;4936425;28;20379;-79
2023/05/07 05:59:08;;;;;;;23.10;12.60;;;15.70;66.50;;;;;;4938473;28;20039;-79
2023/05/07 06:01:34;;;;;;;21.75;11.75;;;15.90;67.20;;;;;;4938910;28;20027;-79
2023/05/07 06:04:02;;;;;;;14.93;10.73;;;16.10;67.70;;;;;;4939019;28;20860;-79
2023/05/07 06:06:29;;;;;;;16.52;12.20;;;16.30;68.10;;;;;;4925030;28;20054;-82
2023/05/07 06:08:55;;;;;;;13.88;11.35;;;16.40;68.20;;;;;;4939386;28;20618;-80
2023/05/07 06:11:27;;;;;;;20.47;12.90;;;16.60;68.50;;;;;;4925930;29;20050;-79
2023/05/07 06:13:53;;;;;;;17.58;11.43;;;16.70;68.70;;;;;;4936880;28;20665;-78
2023/05/07 06:16:18;;;;;;;15.63;10.65;;;16.90;69.00;;;;;;4922059;29;20027;-79
2023/05/07 06:18:46;;;;;;;15.75;11.65;;;17.00;69.10;;;;;;4935872;28;20039;-79
2023/05/07 06:21:14;;;;;;;14.50;11.80;;;17.10;69.20;;;;;;4920787;29;20595;-79
2023/05/07 06:23:40;;;;;;;16.98;11.82;;;17.30;69.50;;;;;;4934454;28;20031;-80
2023/05/07 06:26:08;;;;;;;14.68;10.52;;;17.40;69.60;;;;;;4937324;28;20036;-76
2023/05/07 06:28:39;;;;;;;11.70;10.05;;;17.50;69.60;;;;;;4935098;28;20042;-77
2023/05/07 06:31:14;;;;;;;13.45;10.32;;;17.70;69.70;;;;;;4936739;28;20209;-78
2023/05/07 06:33:43;;;;;;;13.38;10.18;;;17.80;69.70;;;;;;4941646;28;20107;-78
2023/05/07 06:36:09;;;;;;;11.05;9.48;;;18.00;69.80;;;;;;4941098;28;20110;-82
2023/05/07 06:38:35;;;;;;;11.63;8.68;;;18.10;69.80;;;;;;4961501;28;20046;-78
2023/05/07 06:41:02;;;;;;;10.55;8.15;;;18.20;70.00;;;;;;4962176;28;20031;-78
2023/05/07 06:43:27;;;;;;;10.98;8.73;;;18.30;70.10;;;;;;4963665;28;20029;-82
2023/05/07 06:45:56;;;;;;;11.90;9.93;;;18.40;70.00;;;;;;4962189;28;20070;-78
2023/05/07 06:48:22;;;;;;;10.18;8.63;;;18.40;69.70;;;;;;4964740;28;20059;-79
2023/05/07 06:50:57;;;;;;;11.30;8.85;;;18.50;69.70;;;;;;4951417;28;20035;-78
2023/05/07 06:53:24;;;;;;;12.35;8.95;;;18.60;69.50;;;;;;4938703;28;20039;-77
2023/05/07 06:55:52;;;;;;;12.57;8.82;;;18.60;69.30;;;;;;4947243;28;20052;-77
2023/05/07 06:58:19;;;;;;;14.55;10.60;;;18.50;69.00;;;;;;4931626;28;20043;-77
2023/05/07 07:00:45;;;;;;;10.23;9.15;;;18.60;69.20;;;;;;4938200;28;20069;-76
2023/05/07 07:03:12;;;;;;;11.43;9.30;;;18.70;69.00;;;;;;4935123;28;20034;-76
2023/05/07 07:05:41;;;;;;;15.02;9.48;;;19.00;69.20;;;;;;4941551;28;20031;-76
2023/05/07 07:08:07;;;;;;;15.00;9.82;;;19.40;68.70;;;;;;4926934;28;20039;-76
2023/05/07 07:10:33;;;;;;;11.75;8.75;;;19.90;68.70;;;;;;4939297;28;20031;-77
2023/05/07 07:13:00;;;;;;;9.98;8.60;;;20.40;68.10;;;;;;4920487;28;20067;-77
2023/05/07 07:15:28;;;;;;;8.93;7.25;;;21.00;67.60;;;;;;4933063;28;20043;-77
2023/05/07 07:17:55;;;;;;;8.15;6.75;;;21.70;66.90;;;;;;4940997;28;20179;-77
2023/05/07 07:20:23;;;;;;;10.10;6.75;;;22.30;65.80;;;;;;4938257;28;20663;-76
2023/05/07 07:22:48;;;;;;;7.28;6.32;;;22.80;64.80;;;;;;4942695;28;20042;-77
2023/05/07 07:25:16;;;;;;;7.57;6.50;;;23.10;64.20;;;;;;4936178;28;20031;-76
2023/05/07 07:27:42;;;;;;;7.22;5.80;;;23.20;63.10;;;;;;4927798;28;20244;-77
2023/05/07 07:30:09;;;;;;;6.32;4.82;;;22.90;62.50;;;;;;4925460;28;20183;-76
2023/05/07 07:32:37;;;;;;;8.70;5.75;;;22.80;62.70;;;;;;4936972;28;20767;-75
2023/05/07 07:35:04;;;;;;;7.05;5.70;;;23.10;63.00;;;;;;4924237;29;20060;-77
2023/05/07 07:37:31;;;;;;;7.60;5.20;;;23.50;62.70;;;;;;4932869;28;20035;-77
2023/05/07 07:39:57;;;;;;;5.70;4.35;;;23.90;62.20;;;;;;4943512;28;20125;-77
2023/05/07 07:42:23;;;;;;;5.78;4.70;;;24.10;61.90;;;;;;4931170;28;20516;-77
2023/05/07 07:44:50;;;;;;;5.88;4.38;;;24.20;61.80;;;;;;4955595;28;20422;-77
2023/05/07 07:47:20;;;;;;;6.47;4.05;;;24.20;61.50;;;;;;4933878;28;20305;-77
2023/05/07 07:49:47;;;;;;;5.95;3.85;;;24.10;61.10;;;;;;4930036;28;20024;-78
2023/05/07 07:52:13;;;;;;;5.68;3.38;;;24.20;61.10;;;;;;4935726;28;20061;-76
2023/05/07 07:54:40;;;;;;;7.90;3.88;;;24.20;60.60;;;;;;4932439;28;20467;-78
2023/05/07 07:57:07;;;;;;;6.68;3.60;;;24.30;60.30;;;;;;4936449;28;20039;-76
2023/05/07 07:59:34;;;;;;;3.25;2.90;;;24.30;60.00;;;;;;4934726;28;20410;-77
2023/05/07 08:02:00;;;;;;;4.65;2.83;;;24.10;59.40;;;;;;4933751;28;20036;-77
2023/05/07 08:04:28;;;;;;;3.03;2.50;;;24.00;59.30;;;;;;4935717;28;20035;-77
2023/05/07 08:06:55;;;;;;;3.90;2.97;;;23.90;59.20;;;;;;4940514;28;20035;-77
2023/05/07 08:09:22;;;;;;;5.22;3.25;;;23.80;59.00;;;;;;4940790;28;20043;-77
2023/05/07 08:11:49;;;;;;;4.55;2.90;;;24.00;59.10;;;;;;4944739;28;20513;-77
2023/05/07 08:14:15;;;;;;;3.85;2.38;;;24.00;58.70;;;;;;4941461;28;20047;-76
2023/05/07 08:16:44;;;;;;;6.50;3.05;;;23.90;58.40;;;;;;4943443;28;20035;-77
2023/05/07 08:19:10;;;;;;;3.35;2.30;;;23.90;58.60;;;;;;4946145;28;20113;-77
2023/05/07 08:21:39;;;;;;;4.43;2.88;;;23.80;58.50;;;;;;4947196;28;20368;-76
2023/05/07 08:24:06;;;;;;;4.40;2.33;;;23.70;58.30;;;;;;4942215;28;20065;-77
2023/05/07 08:26:32;;;;;;;2.78;2.10;;;23.50;58.10;;;;;;4937799;28;20395;-77
2023/05/07 08:28:58;;;;;;;4.47;2.50;;;23.40;58.00;;;;;;4939761;28;20050;-77
2023/05/07 08:31:24;;;;;;;2.85;2.33;;;23.30;57.90;;;;;;4934768;28;20106;-77
2023/05/07 08:33:50;;;;;;;5.25;2.92;;;23.30;57.80;;;;;;4937914;28;20093;-77
2023/05/07 08:36:18;;;;;;;6.18;2.65;;;23.30;57.90;;;;;;4938631;28;20499;-78
2023/05/07 08:38:45;;;;;;;3.65;2.28;;;23.20;57.70;;;;;;4953637;28;20497;-78
2023/05/07 08:41:12;;;;;;;4.50;2.00;;;23.30;57.70;;;;;;4925902;28;20030;-76
2023/05/07 08:43:41;;;;;;;2.88;1.90;;;23.30;57.60;;;;;;4938216;28;20024;-77
2023/05/07 08:46:11;;;;;;;5.38;2.83;;;23.40;57.60;;;;;;4937917;28;20801;-76
2023/05/07 08:48:40;;;;;;;2.47;1.70;;;23.40;57.40;;;;;;4937506;28;20512;-77
2023/05/07 08:51:17;;;;;;;3.92;2.30;;;23.50;57.40;;;;;;4923521;29;20078;-78
2023/05/07 08:53:45;;;;;;;7.28;4.00;;;23.50;57.20;;;;;;4937204;28;20042;-78
2023/05/07 08:56:15;;;;;;;6.05;2.83;;;23.60;57.30;;;;;;4943567;28;20035;-77
2023/05/07 08:58:45;;;;;;;7.32;3.42;;;23.70;57.20;;;;;;4935026;28;20043;-77
2023/05/07 09:01:15;;;;;;;4.75;3.63;;;23.70;56.90;;;;;;4939325;28;20514;-76
2023/05/07 09:03:46;;;;;;;5.53;3.00;;;23.80;56.90;;;;;;4939082;28;20043;-78
2023/05/07 09:06:13;;;;;;;5.43;3.28;;;24.00;57.20;;;;;;4938680;28;20093;-82
2023/05/07 09:08:40;;;;;;;6.85;3.55;;;24.20;57.10;;;;;;4944116;28;20333;-78
2023/05/07 09:11:08;;;;;;;5.28;3.67;;;24.40;57.10;;;;;;4938000;28;20516;-80
2023/05/07 09:13:33;;;;;;;5.53;3.28;;;24.50;57.00;;;;;;4943461;28;20156;-81
2023/05/07 09:16:11;;;;;;;5.00;3.33;;;24.50;56.60;;;;;;4925963;29;20055;-79
2023/05/07 09:18:44;;;;;;;6.03;4.03;;;24.60;56.40;;;;;;4935680;28;20036;-80
2023/05/07 09:21:16;;;;;;;6.13;4.07;;;24.70;56.50;;;;;;4936209;28;20232;-81
2023/05/07 09:23:43;;;;;;;7.07;4.20;;;24.70;56.50;;;;;;4940912;28;20448;-79
2023/05/07 09:26:11;;;;;;;5.60;3.88;;;24.80;56.70;;;;;;4938423;28;20051;-82
2023/05/07 09:28:40;;;;;;;4.95;3.88;;;24.90;56.80;;;;;;4938660;28;20487;-81
2023/05/07 09:31:07;;;;;;;6.13;3.75;;;25.00;56.80;;;;;;4937118;28;20040;-82
2023/05/07 09:33:33;;;;;;;4.93;3.63;;;25.10;56.70;;;;;;4940246;28;20040;-81
2023/05/07 09:36:12;;;;;;;4.35;3.70;;;25.20;56.60;;;;;;4939148;28;20047;-80
2023/05/07 09:38:40;;;;;;;5.10;4.15;;;25.30;56.30;;;;;;4939662;28;20138;-81
2023/05/07 09:41:07;;;;;;;6.30;3.97;;;25.40;56.40;;;;;;4934247;28;20035;-81
2023/05/07 09:43:40;;;;;;;4.22;3.20;;;25.50;56.30;;;;;;4951841;28;20039;-82
2023/05/07 09:46:16;;;;;;;4.95;3.50;;;25.60;56.30;;;;;;4956368;28;20434;-82
2023/05/07 09:48:49;;;;;;;3.95;3.17;;;25.60;56.10;;;;;;4937671;28;20051;-83
2023/05/07 09:51:29;;;;;;;5.70;3.72;;;25.70;56.20;;;;;;4938850;28;20035;-85
2023/05/07 09:54:03;;;;;;;5.80;2.97;;;26.00;55.80;;;;;;4938815;28;20251;-83
2023/05/07 09:56:31;;;;;;;6.20;3.70;;;26.30;55.60;;;;;;4950311;28;20028;-82
2023/05/07 09:59:00;;;;;;;4.78;3.42;;;26.70;55.20;;;;;;4931776;28;20423;-83
2023/05/07 10:01:27;;;;;;;3.95;2.97;;;27.00;54.70;;;;;;4933277;28;20039;-83
2023/05/07 10:03:54;;;;;;;4.22;2.90;;;27.30;54.40;;;;;;4930146;28;20047;-82
2023/05/07 10:06:21;;;;;;;3.95;2.70;;;27.40;54.00;;;;;;4936030;28;20595;-81
2023/05/07 10:08:49;;;;;;;4.88;3.53;;;27.50;53.80;;;;;;4935752;28;20071;-82
2023/05/07 10:11:16;;;;;;;4.53;3.80;;;27.60;53.70;;;;;;4916617;29;20056;-81
2023/05/07 10:13:44;;;;;;;3.80;2.72;;;27.60;53.60;;;;;;4929416;28;20223;-81
2023/05/07 10:16:10;;;;;;;4.35;3.13;;;27.60;53.60;;;;;;4937599;28;20059;-80
2023/05/07 10:18:43;;;;;;;4.83;3.00;;;27.50;53.50;;;;;;4934378;28;20547;-80
2023/05/07 10:21:19;;;;;;;;;;;27.50;54.20;;;;;;4922590;28;20078;-81
2023/05/07 10:23:50;;;;;;;3.22;2.92;;;27.50;53.80;;;;;;4933493;28;20072;-81
2023/05/07 10:26:22;;;;;;;6.05;2.97;;;27.60;54.00;;;;;;4937206;28;20385;-80
2023/05/07 10:28:54;;;;;;;3.25;2.90;;;27.70;53.70;;;;;;4936550;28;20113;-81
2023/05/07 10:31:48;;;;;;;3.77;3.10;;;27.80;53.60;;;;;;4945999;28;20166;-81
2023/05/07 10:34:18;;;;;;;3.47;2.70;;;27.90;53.30;;;;;;4932130;28;20482;-82
2023/05/07 10:36:45;;;;;;;3.28;2.90;;;28.10;53.10;;;;;;4934453;28;20111;-82
2023/05/07 10:39:12;;;;;;;4.30;3.00;;;28.30;52.90;;;;;;4933701;28;20039;-83
2023/05/07 10:41:39;;;;;;;4.35;3.35;;;28.40;52.60;;;;;;4937250;28;20530;-79
2023/05/07 10:44:06;;;;;;;4.32;2.97;;;28.50;52.50;;;;;;4932578;28;20040;-79
2023/05/07 10:46:35;;;;;;;3.08;2.78;;;28.60;52.40;;;;;;4951683;28;20131;-80
2023/05/07 10:49:18;;;;;;;3.92;3.03;;;28.70;52.20;;;;;;4936559;28;20222;-80
2023/05/07 10:52:13;;;;;;;3.75;3.13;;;28.80;52.00;;;;;;4930137;28;20039;-83
2023/05/07 10:54:41;;;;;;;4.45;3.40;;;28.90;51.70;;;;;;4932611;28;20172;-81
2023/05/07 10:57:35;;;;;;;3.35;2.75;;;29.00;51.70;;;;;;4930265;28;20031;-81
2023/05/07 11:00:15;;;;;;;3.50;3.00;;;29.10;51.30;;;;;;4933094;28;20291;-81
2023/05/07 11:03:01;;;;;;;5.63;3.17;;;29.20;51.30;;;;;;4948980;28;20046;-82
2023/05/07 11:05:42;;;;;;;7.63;5.38;;;29.30;51.00;;;;;;4931892;28;20436;-82
2023/05/07 11:08:54;;;;;;;;;;;29.30;50.90;;;;;;4932674;28;20142;-85
2023/05/07 11:11:52;;;;;;;8.48;4.85;;;29.30;50.90;;;;;;4935450;28;19965;-82
2023/05/07 11:14:42;;;;;;;6.70;4.97;;;29.30;50.60;;;;;;4943421;28;20055;-82
2023/05/07 11:17:11;;;;;;;9.63;6.05;;;29.30;50.70;;;;;;4946329;28;20027;-87
2023/05/07 11:19:52;;;;;;;8.63;6.70;;;29.20;50.30;;;;;;4914827;29;20042;-83
2023/05/07 11:22:35;;;;;;;6.50;5.53;;;29.20;49.90;;;;;;4944735;28;20036;-83
2023/05/07 11:25:19;;;;;;;7.65;6.32;;;29.20;49.90;;;;;;4933250;28;20427;-84
2023/05/07 11:27:51;;;;;;;7.15;6.45;;;29.20;49.70;;;;;;4934165;28;20034;-85
2023/05/07 11:30:18;;;;;;;8.05;6.53;;;29.20;49.80;;;;;;4945674;28;20036;-85
2023/05/07 11:32:47;;;;;;;9.95;6.43;;;29.20;49.60;;;;;;4946588;28;20138;-83
2023/05/07 11:35:16;;;;;;;9.15;7.15;;;29.30;50.10;;;;;;4926964;28;20773;-82
2023/05/07 11:37:45;;;;;;;7.40;6.60;;;29.30;49.40;;;;;;4928739;28;20823;-82
2023/05/07 11:40:13;;;;;;;7.78;6.82;;;29.30;49.50;;;;;;4932682;28;20035;-83
2023/05/07 11:42:42;;;;;;;10.05;7.60;;;29.30;49.70;;;;;;4931905;28;20421;-84
2023/05/07 11:45:09;;;;;;;7.68;6.90;;;29.30;49.80;;;;;;4930195;28;20047;-83
2023/05/07 11:47:35;;;;;;;10.65;6.93;;;29.30;49.80;;;;;;4954170;28;21044;-82
2023/05/07 11:50:07;;;;;;;6.28;5.55;;;29.30;49.90;;;;;;4937950;28;20039;-80
2023/05/07 11:52:34;;;;;;;7.63;6.53;;;29.40;49.90;;;;;;4933023;28;20343;-81
2023/05/07 11:55:01;;;;;;;7.28;6.38;;;29.40;49.90;;;;;;4937099;28;20549;-80
2023/05/07 11:57:27;;;;;;;6.78;6.05;;;29.50;49.90;;;;;;4937175;28;20034;-91
2023/05/07 11:59:54;;;;;;;6.03;5.35;;;29.60;49.90;;;;;;4931032;28;20054;-89
2023/05/07 12:02:20;;;;;;;6.82;5.20;;;29.60;49.80;;;;;;4935153;28;20499;-87
2023/05/07 12:04:46;;;;;;;6.53;5.18;;;29.70;49.80;;;;;;4938106;28;20142;-92
2023/05/07 12:07:15;;;;;;;5.70;4.85;;;29.80;49.60;;;;;;4920643;28;20035;-85
2023/05/07 12:09:42;;;;;;;6.63;5.68;;;29.90;49.60;;;;;;4935994;28;20570;-83
2023/05/07 12:12:08;;;;;;;6.25;5.00;;;29.90;49.60;;;;;;4930418;28;20561;-82
2023/05/07 12:14:41;;;;;;;6.30;5.70;;;30.00;49.50;;;;;;4941660;28;20087;-81
2023/05/07 12:17:08;;;;;;;5.90;5.30;;;30.10;49.30;;;;;;4963953;28;20031;-93
2023/05/07 12:19:35;;;;;;;6.47;4.70;;;30.20;49.20;;;;;;4966051;28;20039;-93
2023/05/07 12:22:03;;;;;;;6.28;5.47;;;30.40;49.10;;;;;;4963331;28;20050;-85
2023/05/07 12:24:29;;;;;;;6.40;5.32;;;30.50;48.80;;;;;;4957396;28;20024;-89
2023/05/07 12:26:55;;;;;;;6.05;4.90;;;30.70;48.70;;;;;;4958456;28;20062;-89
2023/05/07 12:29:24;;;;;;;4.78;4.28;;;30.80;48.50;;;;;;4957908;28;20031;-90
2023/05/07 12:31:50;;;;;;;4.18;3.78;;;30.90;48.20;;;;;;4943645;28;20027;-92
2023/05/07 12:34:16;;;;;;;5.28;4.43;;;31.00;48.20;;;;;;4957887;28;20082;-88
2023/05/07 12:36:42;;;;;;;4.85;4.35;;;31.00;48.20;;;;;;4936343;28;20054;-89
2023/05/07 12:39:09;;;;;;;4.10;3.50;;;31.00;48.70;;;;;;4937497;28;20038;-89
2023/05/07 12:41:55;;;;;;;5.68;3.83;;;31.20;48.00;;;;;;4936738;28;20082;-89
2023/05/07 12:44:34;;;;;;;3.85;3.30;;;31.40;47.70;;;;;;4935258;28;20039;-89
2023/05/07 12:47:03;;;;;;;4.28;3.63;;;31.60;47.60;;;;;;4934435;28;20052;-88